SJV887 WICC-WAHS
Flight info
| Callsign | SJV887 |
|---|---|
| Flight time | 0h 46m |
| Altitude | 20998 |
| Route | PIALA |
| Aircraft | A320/M-SDE3FGHIRWY/LB1 |
Departure
| Time | 2026-04-29 09:25 |
|---|---|
| Airport | Husein Sastranegara International Airport (WICC) |
Arrival
| Time | 2026-04-29 10:12 |
|---|---|
| Airport | Jenderal Ahmad Yani Airport (WAHS) |
| Time | Latitude | Longitude | Altitude | Speed | Heading |
|---|---|---|---|---|---|
| 2026-04-29 08:47 | -6.90269 | 107.57770 | 2399 ft | 0 kts | 192° |
| 2026-04-29 09:20 | -6.90283 | 107.57764 | 2391 ft | 4 kts | 209° |
| 2026-04-29 09:20 | -6.90295 | 107.57739 | 2395 ft | 5 kts | 265° |
| 2026-04-29 09:20 | -6.90290 | 107.57700 | 2399 ft | 7 kts | 278° |
| 2026-04-29 09:21 | -6.90258 | 107.57671 | 2403 ft | 7 kts | 351° |
| 2026-04-29 09:21 | -6.90204 | 107.57686 | 2400 ft | 9 kts | 17° |
| 2026-04-29 09:21 | -6.90136 | 107.57706 | 2400 ft | 11 kts | 11° |
| 2026-04-29 09:21 | -6.90081 | 107.57670 | 2402 ft | 10 kts | 293° |
| 2026-04-29 09:22 | -6.90055 | 107.57599 | 2406 ft | 12 kts | 289° |
| 2026-04-29 09:22 | -6.90026 | 107.57514 | 2406 ft | 14 kts | 289° |
| 2026-04-29 09:22 | -6.89988 | 107.57405 | 2402 ft | 20 kts | 290° |
| 2026-04-29 09:22 | -6.89930 | 107.57252 | 2410 ft | 27 kts | 291° |
| 2026-04-29 09:23 | -6.89871 | 107.57060 | 2421 ft | 30 kts | 290° |
| 2026-04-29 09:23 | -6.89802 | 107.56858 | 2432 ft | 26 kts | 288° |
| 2026-04-29 09:23 | -6.89770 | 107.56765 | 2428 ft | 11 kts | 288° |
| 2026-04-29 09:23 | -6.89759 | 107.56678 | 2433 ft | 10 kts | 314° |
| 2026-04-29 09:24 | -6.89735 | 107.56678 | 2437 ft | 1 kts | 65° |
| 2026-04-29 09:24 | -6.89743 | 107.56696 | 2427 ft | 8 kts | 107° |
| 2026-04-29 09:24 | -6.89750 | 107.56715 | 2435 ft | 0 kts | 111° |
| 2026-04-29 09:25 | -6.89783 | 107.56805 | 2428 ft | 40 kts | 109° |
| 2026-04-29 09:25 | -6.89978 | 107.57372 | 2405 ft | 127 kts | 109° |
| 2026-04-29 09:25 | -6.90334 | 107.58393 | 2693 ft | 167 kts | 108° |
| 2026-04-29 09:25 | -6.90736 | 107.59504 | 3507 ft | 172 kts | 108° |
| 2026-04-29 09:26 | -6.91128 | 107.60617 | 4286 ft | 168 kts | 107° |
| 2026-04-29 09:26 | -6.91515 | 107.61780 | 4846 ft | 183 kts | 107° |
| 2026-04-29 09:26 | -6.91942 | 107.63057 | 5347 ft | 202 kts | 107° |
| 2026-04-29 09:26 | -6.92411 | 107.64456 | 5888 ft | 218 kts | 107° |
| 2026-04-29 09:27 | -6.92909 | 107.65935 | 6610 ft | 228 kts | 107° |
| 2026-04-29 09:27 | -6.93533 | 107.67408 | 7516 ft | 229 kts | 117° |
| 2026-04-29 09:27 | -6.94370 | 107.68767 | 8404 ft | 233 kts | 120° |
| 2026-04-29 09:27 | -6.95249 | 107.70156 | 9257 ft | 237 kts | 120° |
| 2026-04-29 09:28 | -6.96133 | 107.71567 | 10095 ft | 240 kts | 120° |
| 2026-04-29 09:28 | -6.97027 | 107.73000 | 10838 ft | 244 kts | 120° |
| 2026-04-29 09:28 | -6.97936 | 107.74460 | 11575 ft | 248 kts | 120° |
| 2026-04-29 09:28 | -6.98859 | 107.75946 | 12345 ft | 252 kts | 119° |
| 2026-04-29 09:29 | -6.99795 | 107.77452 | 13099 ft | 256 kts | 119° |
| 2026-04-29 09:29 | -7.01382 | 107.80688 | 14485 ft | 260 kts | 103° |
| 2026-04-29 09:29 | -7.01728 | 107.82470 | 15144 ft | 260 kts | 94° |
| 2026-04-29 09:30 | -7.01936 | 107.84288 | 15803 ft | 263 kts | 95° |
| 2026-04-29 09:30 | -7.02160 | 107.86107 | 16469 ft | 266 kts | 95° |
| 2026-04-29 09:30 | -7.02397 | 107.87965 | 17115 ft | 269 kts | 95° |
| 2026-04-29 09:30 | -7.02638 | 107.89845 | 17760 ft | 272 kts | 95° |
| 2026-04-29 09:31 | -7.02883 | 107.91745 | 18390 ft | 275 kts | 95° |
| 2026-04-29 09:31 | -7.03129 | 107.93666 | 18929 ft | 277 kts | 95° |
| 2026-04-29 09:31 | -7.03361 | 107.95607 | 19479 ft | 279 kts | 92° |
| 2026-04-29 09:31 | -7.03377 | 107.97569 | 20014 ft | 281 kts | 84° |
| 2026-04-29 09:32 | -7.03108 | 107.99523 | 20530 ft | 284 kts | 77° |
| 2026-04-29 09:32 | -7.02675 | 108.01507 | 20803 ft | 298 kts | 77° |
| 2026-04-29 09:32 | -7.02225 | 108.03616 | 20886 ft | 319 kts | 77° |
| 2026-04-29 09:32 | -7.01758 | 108.05843 | 20889 ft | 341 kts | 77° |
| 2026-04-29 09:33 | -7.01251 | 108.08261 | 20883 ft | 362 kts | 77° |
| 2026-04-29 09:33 | -7.00716 | 108.10821 | 20883 ft | 382 kts | 77° |
| 2026-04-29 09:33 | -7.00154 | 108.13498 | 20878 ft | 398 kts | 77° |
| 2026-04-29 09:33 | -6.99581 | 108.16239 | 20879 ft | 400 kts | 78° |
| 2026-04-29 09:34 | -6.99202 | 108.19006 | 20873 ft | 398 kts | 85° |
| 2026-04-29 09:34 | -6.99168 | 108.21796 | 20874 ft | 400 kts | 92° |
| 2026-04-29 09:34 | -6.99434 | 108.24586 | 20872 ft | 401 kts | 95° |
| 2026-04-29 09:34 | -6.99731 | 108.27338 | 20874 ft | 400 kts | 95° |
| 2026-04-29 09:35 | -7.00022 | 108.30121 | 20867 ft | 400 kts | 95° |
| 2026-04-29 09:35 | -7.00311 | 108.32905 | 20865 ft | 400 kts | 95° |
| 2026-04-29 09:35 | -7.00600 | 108.35688 | 20868 ft | 400 kts | 95° |
| 2026-04-29 09:35 | -7.00889 | 108.38472 | 20860 ft | 400 kts | 95° |
| 2026-04-29 09:36 | -7.01179 | 108.41258 | 20861 ft | 400 kts | 95° |
| 2026-04-29 09:36 | -7.01463 | 108.44044 | 20862 ft | 399 kts | 94° |
| 2026-04-29 09:36 | -7.01468 | 108.46829 | 20860 ft | 399 kts | 85° |
| 2026-04-29 09:36 | -7.01039 | 108.49588 | 20860 ft | 399 kts | 76° |
| 2026-04-29 09:37 | -7.00212 | 108.52253 | 20856 ft | 399 kts | 70° |
| 2026-04-29 09:37 | -6.99290 | 108.54893 | 20857 ft | 399 kts | 71° |
| 2026-04-29 09:37 | -6.98378 | 108.57539 | 20853 ft | 399 kts | 71° |
| 2026-04-29 09:37 | -6.97473 | 108.60174 | 20855 ft | 399 kts | 71° |
| 2026-04-29 09:38 | -6.96566 | 108.62816 | 20851 ft | 399 kts | 71° |
| 2026-04-29 09:38 | -6.95671 | 108.65418 | 20850 ft | 399 kts | 71° |
| 2026-04-29 09:38 | -6.94763 | 108.68059 | 20848 ft | 399 kts | 71° |
| 2026-04-29 09:38 | -6.93855 | 108.70694 | 20848 ft | 399 kts | 71° |
| 2026-04-29 09:39 | -6.92945 | 108.73338 | 20846 ft | 399 kts | 71° |
| 2026-04-29 09:39 | -6.92034 | 108.75984 | 20849 ft | 399 kts | 71° |
| 2026-04-29 09:39 | -6.91124 | 108.78626 | 20848 ft | 399 kts | 71° |
| 2026-04-29 09:39 | -6.90212 | 108.81271 | 20846 ft | 400 kts | 71° |
| 2026-04-29 09:40 | -6.89302 | 108.83911 | 20845 ft | 399 kts | 71° |
| 2026-04-29 09:40 | -6.88391 | 108.86554 | 20846 ft | 400 kts | 71° |
| 2026-04-29 09:40 | -6.87480 | 108.89198 | 20844 ft | 399 kts | 71° |
| 2026-04-29 09:40 | -6.86876 | 108.90950 | 20846 ft | 400 kts | 71° |
| 2026-04-29 09:41 | -6.85656 | 108.94485 | 20840 ft | 400 kts | 71° |
| 2026-04-29 09:41 | -6.85051 | 108.96240 | 20841 ft | 400 kts | 71° |
| 2026-04-29 09:41 | -6.84141 | 108.98878 | 20840 ft | 400 kts | 71° |
| 2026-04-29 09:41 | -6.83229 | 109.01522 | 20838 ft | 400 kts | 71° |
| 2026-04-29 09:42 | -6.82316 | 109.04169 | 20837 ft | 400 kts | 71° |
| 2026-04-29 09:42 | -6.81403 | 109.06813 | 20838 ft | 400 kts | 71° |
| 2026-04-29 09:42 | -6.80490 | 109.09458 | 20829 ft | 399 kts | 71° |
| 2026-04-29 09:42 | -6.79725 | 109.12143 | 20778 ft | 399 kts | 79° |
| 2026-04-29 09:43 | -6.79421 | 109.14899 | 20664 ft | 391 kts | 89° |
| 2026-04-29 09:43 | -6.79564 | 109.17532 | 20509 ft | 374 kts | 98° |
| 2026-04-29 09:43 | -6.79940 | 109.20050 | 20280 ft | 356 kts | 98° |
| 2026-04-29 09:43 | -6.80292 | 109.22494 | 19703 ft | 351 kts | 97° |
| 2026-04-29 09:44 | -6.80637 | 109.24942 | 19049 ft | 348 kts | 97° |
| 2026-04-29 09:44 | -6.80973 | 109.27341 | 18616 ft | 344 kts | 97° |
| 2026-04-29 09:44 | -6.81303 | 109.29695 | 18390 ft | 344 kts | 97° |
| 2026-04-29 09:44 | -6.81638 | 109.32080 | 18176 ft | 344 kts | 97° |
| 2026-04-29 09:45 | -6.81973 | 109.34461 | 17925 ft | 343 kts | 97° |
| 2026-04-29 09:45 | -6.82306 | 109.36829 | 17677 ft | 341 kts | 97° |
| 2026-04-29 09:45 | -6.82638 | 109.39189 | 17419 ft | 340 kts | 97° |
| 2026-04-29 09:45 | -6.82970 | 109.41548 | 17152 ft | 338 kts | 97° |
| 2026-04-29 09:46 | -6.83299 | 109.43884 | 16736 ft | 334 kts | 97° |
| 2026-04-29 09:46 | -6.83623 | 109.46188 | 16071 ft | 332 kts | 97° |
| 2026-04-29 09:46 | -6.83945 | 109.48477 | 15422 ft | 330 kts | 97° |
| 2026-04-29 09:46 | -6.84265 | 109.50755 | 14790 ft | 327 kts | 97° |
| 2026-04-29 09:47 | -6.84583 | 109.53012 | 14195 ft | 324 kts | 97° |
| 2026-04-29 09:47 | -6.84893 | 109.55218 | 13603 ft | 322 kts | 97° |
| 2026-04-29 09:47 | -6.85205 | 109.57442 | 12957 ft | 318 kts | 97° |
| 2026-04-29 09:47 | -6.85510 | 109.59608 | 12591 ft | 306 kts | 97° |
| 2026-04-29 09:48 | -6.85805 | 109.61711 | 12070 ft | 301 kts | 97° |
| 2026-04-29 09:48 | -6.86096 | 109.63788 | 11494 ft | 298 kts | 97° |
| 2026-04-29 09:48 | -6.86385 | 109.65848 | 10947 ft | 295 kts | 97° |
| 2026-04-29 09:48 | -6.86671 | 109.67888 | 10405 ft | 293 kts | 97° |
| 2026-04-29 09:49 | -6.86954 | 109.69906 | 9870 ft | 290 kts | 97° |
| 2026-04-29 09:49 | -6.87234 | 109.71910 | 9291 ft | 287 kts | 97° |
| 2026-04-29 09:49 | -6.87510 | 109.73889 | 8732 ft | 283 kts | 97° |
| 2026-04-29 09:49 | -6.87778 | 109.75797 | 8529 ft | 267 kts | 97° |
| 2026-04-29 09:50 | -6.88027 | 109.77570 | 8305 ft | 253 kts | 97° |
| 2026-04-29 09:50 | -6.88268 | 109.79302 | 8033 ft | 247 kts | 97° |
| 2026-04-29 09:50 | -6.88513 | 109.81056 | 7908 ft | 253 kts | 97° |
| 2026-04-29 09:50 | -6.88754 | 109.82788 | 7791 ft | 252 kts | 97° |
| 2026-04-29 09:51 | -6.88997 | 109.84524 | 7672 ft | 250 kts | 97° |
| 2026-04-29 09:51 | -6.89239 | 109.86255 | 7553 ft | 249 kts | 97° |
| 2026-04-29 09:51 | -6.89420 | 109.87993 | 7433 ft | 250 kts | 90° |
| 2026-04-29 09:51 | -6.89295 | 109.89698 | 7317 ft | 250 kts | 80° |
| 2026-04-29 09:52 | -6.88952 | 109.91446 | 7194 ft | 249 kts | 79° |
| 2026-04-29 09:52 | -6.88627 | 109.93157 | 7077 ft | 248 kts | 79° |
| 2026-04-29 09:52 | -6.88311 | 109.94858 | 6960 ft | 247 kts | 79° |
| 2026-04-29 09:52 | -6.87999 | 109.96555 | 6867 ft | 243 kts | 79° |
| 2026-04-29 09:53 | -6.87698 | 109.98190 | 6784 ft | 231 kts | 79° |
| 2026-04-29 09:53 | -6.87416 | 109.99723 | 6636 ft | 216 kts | 79° |
| 2026-04-29 09:53 | -6.87146 | 110.01182 | 6320 ft | 211 kts | 80° |
| 2026-04-29 09:53 | -6.86878 | 110.02628 | 5906 ft | 210 kts | 80° |
| 2026-04-29 09:54 | -6.86612 | 110.04072 | 5509 ft | 209 kts | 80° |
| 2026-04-29 09:54 | -6.86347 | 110.05500 | 5131 ft | 207 kts | 80° |
| 2026-04-29 09:54 | -6.86088 | 110.06900 | 4844 ft | 201 kts | 80° |
| 2026-04-29 09:54 | -6.85830 | 110.08300 | 4568 ft | 207 kts | 80° |
| 2026-04-29 09:55 | -6.85569 | 110.09714 | 4279 ft | 207 kts | 80° |
| 2026-04-29 09:55 | -6.85305 | 110.11140 | 3979 ft | 207 kts | 80° |
| 2026-04-29 09:55 | -6.85040 | 110.12560 | 3687 ft | 206 kts | 80° |
| 2026-04-29 09:55 | -6.84777 | 110.13983 | 3390 ft | 206 kts | 80° |
| 2026-04-29 09:56 | -6.84515 | 110.15400 | 3116 ft | 206 kts | 80° |
| 2026-04-29 09:56 | -6.84258 | 110.16785 | 3034 ft | 193 kts | 80° |
| 2026-04-29 09:56 | -6.84009 | 110.18126 | 3004 ft | 200 kts | 80° |
| 2026-04-29 09:56 | -6.83755 | 110.19499 | 2994 ft | 200 kts | 80° |
| 2026-04-29 09:57 | -6.83614 | 110.20879 | 3007 ft | 199 kts | 99° |
| 2026-04-29 09:57 | -6.84302 | 110.22081 | 2969 ft | 203 kts | 133° |
| 2026-04-29 09:57 | -6.85311 | 110.23052 | 2796 ft | 200 kts | 134° |
| 2026-04-29 09:57 | -6.86281 | 110.24078 | 2716 ft | 199 kts | 130° |
| 2026-04-29 09:58 | -6.87126 | 110.25071 | 2584 ft | 176 kts | 128° |
| 2026-04-29 09:58 | -6.87864 | 110.25975 | 2398 ft | 160 kts | 127° |
| 2026-04-29 09:58 | -6.88546 | 110.26811 | 2221 ft | 149 kts | 127° |
| 2026-04-29 09:58 | -6.89186 | 110.27599 | 2041 ft | 142 kts | 127° |
| 2026-04-29 09:59 | -6.89816 | 110.28374 | 1869 ft | 146 kts | 126° |
| 2026-04-29 09:59 | -6.90458 | 110.29161 | 1684 ft | 144 kts | 127° |
| 2026-04-29 09:59 | -6.91093 | 110.29938 | 1503 ft | 144 kts | 126° |
| 2026-04-29 09:59 | -6.91728 | 110.30718 | 1327 ft | 145 kts | 126° |
| 2026-04-29 10:00 | -6.92372 | 110.31510 | 1158 ft | 148 kts | 126° |
| 2026-04-29 10:00 | -6.93030 | 110.32318 | 984 ft | 151 kts | 126° |
| 2026-04-29 10:00 | -6.93702 | 110.33154 | 815 ft | 153 kts | 124° |
| 2026-04-29 10:00 | -6.94367 | 110.33971 | 623 ft | 149 kts | 124° |
| 2026-04-29 10:01 | -6.95007 | 110.34761 | 413 ft | 146 kts | 124° |
| 2026-04-29 10:01 | -6.95637 | 110.35574 | 220 ft | 142 kts | 123° |
| 2026-04-29 10:01 | -6.96229 | 110.36331 | 38 ft | 136 kts | 127° |
| 2026-04-29 10:01 | -6.96843 | 110.37075 | 14 ft | 148 kts | 132° |
| 2026-04-29 10:02 | -6.97578 | 110.37935 | 456 ft | 165 kts | 127° |
| 2026-04-29 10:02 | -6.98288 | 110.38819 | 1349 ft | 161 kts | 127° |
| 2026-04-29 10:02 | -6.99018 | 110.39699 | 2227 ft | 170 kts | 128° |
| 2026-04-29 10:02 | -6.99845 | 110.40691 | 2731 ft | 203 kts | 128° |
| 2026-04-29 10:03 | -7.00846 | 110.41902 | 2952 ft | 246 kts | 128° |
| 2026-04-29 10:03 | -7.01978 | 110.43262 | 3687 ft | 265 kts | 128° |
| 2026-04-29 10:03 | -7.03226 | 110.44756 | 3628 ft | 294 kts | 129° |
| 2026-04-29 10:03 | -7.04544 | 110.46327 | 3272 ft | 292 kts | 128° |
| 2026-04-29 10:04 | -7.05589 | 110.48038 | 3022 ft | 282 kts | 107° |
| 2026-04-29 10:04 | -7.05752 | 110.49922 | 2999 ft | 264 kts | 80° |
| 2026-04-29 10:04 | -7.05124 | 110.51584 | 2998 ft | 247 kts | 64° |
| 2026-04-29 10:04 | -7.04375 | 110.53071 | 2998 ft | 231 kts | 63° |
| 2026-04-29 10:05 | -7.03671 | 110.54469 | 2999 ft | 217 kts | 64° |
| 2026-04-29 10:05 | -7.02963 | 110.55767 | 3002 ft | 212 kts | 53° |
| 2026-04-29 10:05 | -7.01767 | 110.56644 | 3007 ft | 217 kts | 19° |
| 2026-04-29 10:05 | -7.00266 | 110.56693 | 3005 ft | 222 kts | 345° |
| 2026-04-29 10:06 | -6.98953 | 110.55875 | 2998 ft | 227 kts | 311° |
| 2026-04-29 10:06 | -6.98274 | 110.54465 | 2852 ft | 227 kts | 277° |
| 2026-04-29 10:06 | -6.98471 | 110.52949 | 2723 ft | 217 kts | 243° |
| 2026-04-29 10:06 | -6.99446 | 110.51838 | 2468 ft | 210 kts | 206° |
| 2026-04-29 10:07 | -7.00796 | 110.51480 | 2175 ft | 199 kts | 180° |
| 2026-04-29 10:07 | -7.02197 | 110.51519 | 2039 ft | 208 kts | 173° |
| 2026-04-29 10:07 | -7.03635 | 110.51631 | 2003 ft | 205 kts | 174° |
| 2026-04-29 10:07 | -7.05075 | 110.51549 | 2009 ft | 209 kts | 188° |
| 2026-04-29 10:08 | -7.06446 | 110.51096 | 2013 ft | 210 kts | 202° |
| 2026-04-29 10:08 | -7.07701 | 110.50366 | 2007 ft | 211 kts | 215° |
| 2026-04-29 10:08 | -7.08575 | 110.49189 | 1944 ft | 214 kts | 251° |
| 2026-04-29 10:08 | -7.08640 | 110.47722 | 1838 ft | 211 kts | 286° |
| 2026-04-29 10:09 | -7.07874 | 110.46509 | 1646 ft | 206 kts | 323° |
| 2026-04-29 10:09 | -7.06586 | 110.45945 | 1620 ft | 192 kts | 347° |
| 2026-04-29 10:09 | -7.05376 | 110.45614 | 1490 ft | 169 kts | 345° |
| 2026-04-29 10:09 | -7.04331 | 110.45172 | 1371 ft | 157 kts | 334° |
| 2026-04-29 10:10 | -7.03444 | 110.44582 | 1272 ft | 152 kts | 324° |
| 2026-04-29 10:10 | -7.02653 | 110.43881 | 1192 ft | 150 kts | 317° |
| 2026-04-29 10:10 | -7.01938 | 110.43121 | 1115 ft | 150 kts | 313° |
| 2026-04-29 10:10 | -7.01261 | 110.42333 | 1016 ft | 148 kts | 311° |
| 2026-04-29 10:11 | -7.00608 | 110.41544 | 872 ft | 145 kts | 311° |
| 2026-04-29 10:11 | -6.99973 | 110.40764 | 746 ft | 144 kts | 311° |
| 2026-04-29 10:11 | -6.99347 | 110.39981 | 619 ft | 143 kts | 311° |
| 2026-04-29 10:11 | -6.98688 | 110.39224 | 397 ft | 143 kts | 314° |
| 2026-04-29 10:12 | -6.98037 | 110.38472 | 149 ft | 142 kts | 312° |
| 2026-04-29 10:12 | -6.97415 | 110.37742 | 6 ft | 129 kts | 311° |
| 2026-04-29 10:12 | -6.97003 | 110.37253 | 5 ft | 41 kts | 311° |
| 2026-04-29 10:12 | -6.96862 | 110.37086 | 5 ft | 20 kts | 310° |
| 2026-04-29 10:13 | -6.96771 | 110.37068 | 10 ft | 13 kts | 35° |
| 2026-04-29 10:13 | -6.96714 | 110.37115 | 16 ft | 9 kts | 39° |
| 2026-04-29 10:13 | -6.96663 | 110.37157 | 17 ft | 10 kts | 39° |
| 2026-04-29 10:13 | -6.96617 | 110.37208 | 18 ft | 7 kts | 87° |
| 2026-04-29 10:14 | -6.96638 | 110.37243 | 19 ft | 8 kts | 128° |
| 2026-04-29 10:14 | -6.96682 | 110.37298 | 18 ft | 12 kts | 128° |
| 2026-04-29 10:14 | -6.96742 | 110.37367 | 18 ft | 11 kts | 130° |
| 2026-04-29 10:14 | -6.96755 | 110.37415 | 18 ft | 7 kts | 65° |
| 2026-04-29 10:15 | -6.96714 | 110.37454 | 18 ft | 9 kts | 41° |
| 2026-04-29 10:15 | -6.96712 | 110.37456 | 19 ft | 0 kts | 41° |